DNKT

Katsina / Yaradura Airport

Katsina, Nigeria
TAF DNKT 260930Z 2612/2718 24010KT CAVOK PROB30 TEMPO 2616/2619 08015G25KT 5000 SQTS FEW020CB
Issued Valid From Valid To
Apr-26 @ 09:30 UTC
(4 hours ago)
Apr-26 @ 12:00 UTC
(2 hours ago)
Apr-27 @ 18:00 UTC
(-1 days ago)
Apr-26 @ 12:00 to Apr-27 @ 18:00
TAF DNKT 260930Z 2612/2718 24010KT CAVOK
Wind Visibility Clouds Conditions
240° at 10 knots 10,000+ meters
  • No significant clouds
Temporary  (Probability 30%) Apr-26 @ 16:00 to Apr-26 @ 19:00
PROB30 TEMPO 2616/2619 08015G25KT 5000 SQTS FEW020CB
Wind Visibility Clouds Conditions
80° at 15 knots
 Gusting to 25 knots
5,005 meters
  • Few at 2,000' AGL
  • Thunderstorm
  • Squalls
TAF DNKT 260930Z 2612/2718 24010KT CAVOK PROB30 TEMPO 2616/2619 08015G25KT 5000 SQTS FEW020CB
Issued Apr-26 @ 09:30 UTC
(4 hours ago)
Valid From Apr-26 @ 12:00 UTC
(2 hours ago)
Valid To Apr-27 @ 18:00 UTC
(-1 days ago)
Apr-26 @ 12:00 - Apr-27 @ 18:00
Wind Visibility
240° at 10 knots 10,000+ meters
Clouds
  • No significant clouds
Conditions
Probability 30% Temporary Apr-26 @ 16:00 - Apr-26 @ 19:00
Wind Visibility
80° at 15 knots
 Gusting to 25 knots
5,005 meters
Clouds
  • Few at 2,000' AGL
Conditions
  • Thunderstorm
  • Squalls